KSHRKCOD

Guest
Details From KSHR - Sheridan Co
To KCOD - Yellowstone Rgnl
Flight Number -
Tags Generated
Created
Modified
Stats Distance 89 nm / 165 km
Max Altitude 0 ft / 0 m
Waypoints 2
Social Downloads 1
Likes 0
Share VATSIM

Download

Looking for another format? Having issues loading an existing format? Contact us
Advertisement - Login to hide

Notes

Generated

Route

KSHR KCOD

ID Type Via Altitude Latitude Longitude Leg Dist Tot Dist Heading (true) Name
O KSHR APT - 0 ft / 0 m 44.77088˚ -106.98754˚ - 0 nm - -
O KCOD APT - 0 ft / 0 m 44.51326˚ -109.03635˚ 88 nm 88 nm 261° / 259° -

Altitude Profile

Advertisement - Login to hide

KSHR

Details ICAO KSHR (SHR)
Name SHERIDAN CO
Region United States
Timezone America/Denver (UTC-7.0)
Stats Elevation 4,021 ft / 1,226 m (AMSL)
Location 44.770493° -106.977484°
Runways 3
Magnetic Variation 9.755° E

METAR

KSHR 122053Z AUTO 00000KT 10SM CLR 21/M07 A3004 RMK AO2 SLP174 T02111067 58034

Decode

TAF

KSHR 121729Z 1218/1318 30010KT P6SM SKC TEMPO 1221/1301 30020G35KT FM130100 30018KT P6SM FEW120 BKN200 WS020/31050KT

Decode

Departure Runways

ID Width Length Bearing (true) Bearing (mag) Surface Threshold Offset Overrun Length
05 75 ft / 23 m 5,022 ft / 1,531 m 67.89° 58.14° Asphalt 0 ft / 0 m 0 ft / 0 m
13 151 ft / 46 m 2,686 ft / 819 m 140.87° 131.12° Asphalt 0 ft / 0 m 0 ft / 0 m
14 98 ft / 30 m 8,298 ft / 2,529 m 156.40° 146.65° Asphalt 0 ft / 0 m 0 ft / 0 m
23 75 ft / 23 m 5,022 ft / 1,531 m 247.91° 238.16° Asphalt 0 ft / 0 m 0 ft / 0 m
31 151 ft / 46 m 2,686 ft / 819 m 320.88° 311.13° Asphalt 0 ft / 0 m 0 ft / 0 m
32 98 ft / 30 m 8,298 ft / 2,529 m 336.40° 326.65° Asphalt 0 ft / 0 m 0 ft / 0 m

KCOD

Details ICAO KCOD (COD)
Name Yellowstone Rgnl
Region United States
Timezone America/Denver (UTC-7.0)
Stats Elevation 5,102 ft / 1,555 m (AMSL)
Location 44.520187° -109.023806°
Runways 1
Magnetic Variation 10.757° E

METAR

KCOD 122056Z AUTO 29008G16KT 250V310 10SM CLR 16/M14 A3017 RMK AO2 SLP224 T01561144 58028

Decode

TAF

TAF KCOD 121726Z 1218/1318 21010G18KT P6SM SKC FM130500 28012KT P6SM SCT110 BKN200 FM131100 01009KT P6SM SCT050 BKN090 OVC150 AMD LTD TO CLD VIS AND WIND

Decode

Destination Runways

ID Width Length Bearing (true) Bearing (mag) Surface Threshold Offset Overrun Length
04 98 ft / 30 m 8,264 ft / 2,519 m 52.19° 41.43° Asphalt 689 ft / 210 m 236 ft / 72 m
22 98 ft / 30 m 8,264 ft / 2,519 m 232.21° 221.45° Asphalt 397 ft / 121 m 203 ft / 62 m